createdAt,value
2022-12-15T00:00:01.180Z,97789.16
2022-12-15T00:03:51.273Z,97791.78
2022-12-15T00:06:56.974Z,97794.44
2022-12-15T00:10:02.401Z,97790.84
2022-12-15T00:13:08.106Z,97790.84
2022-12-15T00:16:13.692Z,97795.91
2022-12-15T00:19:19.515Z,97806.81
2022-12-15T00:22:25.378Z,97801.78
2022-12-15T00:25:31.067Z,97800.44
2022-12-15T00:28:36.563Z,97801.53
2022-12-15T00:31:42.362Z,97782.91
2022-12-15T00:34:47.976Z,97798.19
2022-12-15T00:37:53.671Z,97801.41
2022-12-15T00:40:40.698Z,97803.19
2022-12-15T00:43:33.177Z,97821.22
2022-12-15T00:46:39.198Z,97839.81
2022-12-15T00:49:46.850Z,97828.78
2022-12-15T00:52:52.403Z,97840.66
2022-12-15T00:55:58.123Z,97845.47
2022-12-15T00:59:03.950Z,97828.09
2022-12-15T01:02:09.907Z,97851.34
2022-12-15T01:05:17.725Z,97840.91
2022-12-15T01:08:23.564Z,97845.94
2022-12-15T01:11:29.294Z,97864.69
2022-12-15T01:14:35.005Z,97861.94
2022-12-15T01:17:40.600Z,97866.84
2022-12-15T01:20:27.650Z,97878.25
2022-12-15T01:23:14.673Z,97858.19
2022-12-15T01:26:02.159Z,97865.28
2022-12-15T01:28:49.221Z,97873.44
2022-12-15T01:31:36.812Z,97869.38
2022-12-15T01:34:23.936Z,97862.78
2022-12-15T01:37:11.057Z,97890.03
2022-12-15T01:40:16.398Z,97871.16
2022-12-15T01:43:03.493Z,97883.19
2022-12-15T01:45:58.851Z,97876.47
2022-12-15T01:48:57.553Z,97877.41
2022-12-15T01:51:48.790Z,97863.22
2022-12-15T01:54:41.088Z,97861.56
2022-12-15T01:57:32.159Z,97856.53
2022-12-15T02:00:19.168Z,97861.06
2022-12-15T02:03:07.785Z,97865.63
2022-12-15T02:05:55.976Z,97871.75
2022-12-15T02:08:47.396Z,97882.56
2022-12-15T02:12:08.291Z,97896.88
2022-12-15T02:15:10.904Z,97880.75
2022-12-15T02:18:03.159Z,97882.31
2022-12-15T02:21:16.647Z,97895.19
2022-12-15T02:24:15.692Z,97892.66
2022-12-15T02:27:12.410Z,97900.81
2022-12-15T02:30:05.222Z,97908.75
2022-12-15T02:33:15.193Z,97899.88
2022-12-15T02:36:12.877Z,97904.31
2022-12-15T02:39:00.004Z,97911.03
2022-12-15T02:41:47.967Z,97914.16
2022-12-15T02:44:47.220Z,97919.47
2022-12-15T02:47:58.311Z,97909.13
2022-12-15T02:51:00.442Z,97928.22
2022-12-15T02:54:15.850Z,97912.72
2022-12-15T02:57:20.744Z,97926.91
2022-12-15T03:00:11.251Z,97932.31
2022-12-15T03:02:59.012Z,97911.53
2022-12-15T03:05:54.816Z,97930.50
2022-12-15T03:08:41.860Z,97922.94
2022-12-15T03:11:29.233Z,97922.09
2022-12-15T03:14:16.715Z,97950.22
2022-12-15T03:17:07.254Z,97946.72
2022-12-15T03:19:54.291Z,97963.91
2022-12-15T03:22:42.537Z,97965.72
2022-12-15T03:25:30.096Z,97965.38
2022-12-15T03:28:17.268Z,97956.97
2022-12-15T03:31:04.414Z,97959.34
2022-12-15T03:33:51.469Z,97983.88
2022-12-15T03:36:38.740Z,97974.97
2022-12-15T03:39:25.794Z,97986.38
2022-12-15T03:42:12.896Z,97986.25
2022-12-15T03:44:59.918Z,97998.63
2022-12-15T03:47:47.728Z,97996.09
2022-12-15T03:50:34.775Z,97997.31
2022-12-15T03:53:21.909Z,98000.66
2022-12-15T03:56:09.119Z,98005.59
2022-12-15T03:58:56.249Z,97996.34
2022-12-15T04:01:48.322Z,97994.53
2022-12-15T04:04:35.640Z,98014.84
2022-12-15T04:07:22.772Z,98008.44
2022-12-15T04:10:11.271Z,98013.13
2022-12-15T04:13:02.967Z,98025.59
2022-12-15T04:15:50.180Z,98032.22
2022-12-15T04:18:37.890Z,98036.22
2022-12-15T04:21:24.931Z,98041.47
2022-12-15T04:24:30.920Z,98040.72
2022-12-15T04:27:36.889Z,98049.41
2022-12-15T04:30:44.536Z,98056.47
2022-12-15T04:33:50.707Z,98066.53
2022-12-15T04:36:58.763Z,98058.97
2022-12-15T04:40:08.058Z,98058.72
2022-12-15T04:43:14.168Z,98074.72
2022-12-15T04:46:20.078Z,98059.81
2022-12-15T04:49:25.667Z,98067.84
2022-12-15T04:52:37.286Z,98057.84
2022-12-15T04:55:42.939Z,98077.06
2022-12-15T04:58:48.500Z,98081.50
2022-12-15T05:01:54.219Z,98085.63
2022-12-15T05:04:59.775Z,98078.16
2022-12-15T05:08:05.356Z,98093.44
2022-12-15T05:11:11.039Z,98093.69
2022-12-15T05:14:16.882Z,98097.78
2022-12-15T05:17:23.071Z,98094.28
2022-12-15T05:20:29.111Z,98090.41
2022-12-15T05:23:34.927Z,98099.34
2022-12-15T05:26:41.041Z,98096.81
2022-12-15T05:29:46.596Z,98103.16
2022-12-15T05:32:35.744Z,98109.38
2022-12-15T05:35:39.845Z,98110.84
2022-12-15T05:38:26.954Z,98098.09
2022-12-15T05:41:15.313Z,98110.47
2022-12-15T05:44:12.783Z,98116.06
2022-12-15T05:47:00.874Z,98136.34
2022-12-15T05:49:47.987Z,98125.28
2022-12-15T05:52:35.534Z,98146.81
2022-12-15T05:55:22.907Z,98160.75
2022-12-15T05:58:16.925Z,98155.88
2022-12-15T06:01:10.012Z,98170.66
2022-12-15T06:03:58.361Z,98173.84
2022-12-15T06:06:45.494Z,98171.94
2022-12-15T06:09:32.603Z,98177.16
2022-12-15T06:12:19.719Z,98163.28
2022-12-15T06:15:07.201Z,98183.13
2022-12-15T06:17:56.012Z,98186.38
2022-12-15T06:20:43.112Z,98187.91
2022-12-15T06:23:33.314Z,98164.16
2022-12-15T06:26:24.212Z,98185.69
2022-12-15T06:29:12.348Z,98182.22
2022-12-15T06:31:59.378Z,98194.03
2022-12-15T06:34:46.468Z,98189.81
2022-12-15T06:37:33.738Z,98165.81
2022-12-15T06:40:20.813Z,98192.34
2022-12-15T06:43:08.677Z,98202.28
2022-12-15T06:45:56.371Z,98195.09
2022-12-15T06:48:45.816Z,98192.66
2022-12-15T06:51:32.918Z,98196.66
2022-12-15T06:54:19.977Z,98215.78
2022-12-15T06:57:07.056Z,98216.97
2022-12-15T06:59:54.056Z,98215.84
2022-12-15T07:02:43.107Z,98210.03
2022-12-15T07:05:30.442Z,98216.16
2022-12-15T07:08:17.515Z,98224.34
2022-12-15T07:11:06.757Z,98216.00
2022-12-15T07:13:54.714Z,98225.41
2022-12-15T07:16:41.884Z,98219.38
2022-12-15T07:19:30.071Z,98215.44
2022-12-15T07:22:17.110Z,98220.97
2022-12-15T07:25:04.709Z,98233.31
2022-12-15T07:27:51.717Z,98242.84
2022-12-15T07:30:39.421Z,98254.59
2022-12-15T07:33:26.455Z,98244.34
2022-12-15T07:36:13.527Z,98226.34
2022-12-15T07:39:01.490Z,98243.66
2022-12-15T07:41:48.599Z,98269.34
2022-12-15T07:44:35.617Z,98270.41
2022-12-15T07:47:22.669Z,98259.53
2022-12-15T07:50:09.877Z,98242.34
2022-12-15T07:52:57.266Z,98269.63
2022-12-15T07:56:06.109Z,98264.66
2022-12-15T07:58:51.383Z,98261.19
2022-12-15T08:01:38.508Z,98254.25
2022-12-15T08:04:25.813Z,98289.28
2022-12-15T08:07:12.886Z,98288.44
2022-12-15T08:10:00.004Z,98291.88
2022-12-15T08:12:47.015Z,98282.28
2022-12-15T08:15:38.453Z,98287.34
2022-12-15T08:18:25.735Z,98288.72
2022-12-15T08:21:12.895Z,98271.72
2022-12-15T08:24:03.119Z,98255.78
2022-12-15T08:26:50.710Z,98261.25
2022-12-15T08:29:53.177Z,98258.00
2022-12-15T08:32:40.289Z,98260.75
2022-12-15T08:35:55.281Z,98271.31
2022-12-15T08:38:35.536Z,98288.66
2022-12-15T08:41:26.564Z,98296.97
2022-12-15T08:44:13.989Z,98311.22
2022-12-15T08:47:01.061Z,98304.63
2022-12-15T08:49:48.790Z,98294.19
2022-12-15T08:52:36.248Z,98297.22
2022-12-15T08:55:24.072Z,98311.84
2022-12-15T08:58:11.101Z,98277.97
2022-12-15T09:01:03.855Z,98296.97
2022-12-15T09:03:55.944Z,98306.09
2022-12-15T09:06:43.509Z,98300.03
2022-12-15T09:09:32.062Z,98297.97
2022-12-15T09:12:19.136Z,98301.06
2022-12-15T09:15:06.680Z,98303.13
2022-12-15T09:17:53.733Z,98305.72
2022-12-15T09:20:40.728Z,98315.66
2022-12-15T09:23:27.959Z,98324.44
2022-12-15T09:26:16.013Z,98323.06
2022-12-15T09:29:03.293Z,98325.09
2022-12-15T09:31:50.503Z,98320.94
2022-12-15T09:34:37.608Z,98323.72
2022-12-15T09:37:24.650Z,98325.94
2022-12-15T09:40:13.782Z,98330.03
2022-12-15T09:43:32.880Z,98329.88
2022-12-15T09:46:21.206Z,98331.88
2022-12-15T09:49:34.822Z,98338.59
2022-12-15T09:52:31.485Z,98333.19
2022-12-15T09:55:24.900Z,98327.22
2022-12-15T09:58:35.806Z,98338.38
2022-12-15T10:01:38.884Z,98348.22
2022-12-15T10:04:34.870Z,98342.69
2022-12-15T10:07:30.248Z,98349.13
2022-12-15T10:10:20.151Z,98346.13
2022-12-15T10:13:19.510Z,98336.09
2022-12-15T10:16:15.816Z,98339.31
2022-12-15T10:19:07.413Z,98317.25
2022-12-15T10:21:54.514Z,98314.78
2022-12-15T10:25:09.312Z,98331.16
2022-12-15T10:28:11.150Z,98319.91
2022-12-15T10:31:13.190Z,98308.50
2022-12-15T10:34:10.517Z,98318.84
2022-12-15T10:36:58.476Z,98297.38
2022-12-15T10:42:56.190Z,98316.63
2022-12-15T10:45:43.711Z,98296.22
2022-12-15T10:48:31.029Z,98314.13
2022-12-15T10:51:31.648Z,98305.00
2022-12-15T10:54:18.996Z,98291.63
2022-12-15T10:57:27.625Z,98314.25
2022-12-15T11:00:14.935Z,98308.19
2022-12-15T11:03:20.238Z,98302.91
2022-12-15T11:06:16.950Z,98299.09
2022-12-15T11:09:37.464Z,98290.75
2022-12-15T11:12:50.402Z,98292.16
2022-12-15T11:15:47.149Z,98281.56
2022-12-15T11:18:37.973Z,98283.78
2022-12-15T11:21:28.748Z,98288.84
2022-12-15T11:24:27.072Z,98282.47
2022-12-15T11:27:14.409Z,98285.47
2022-12-15T11:30:13.688Z,98280.56
2022-12-15T11:33:02.262Z,98276.13
2022-12-15T11:36:01.453Z,98289.47
2022-12-15T11:39:03.780Z,98298.41
2022-12-15T11:42:02.911Z,98277.91
2022-12-15T11:45:31.325Z,98295.38
2022-12-15T11:48:22.423Z,98280.78
2022-12-15T11:51:09.509Z,98277.34
2022-12-15T11:54:24.044Z,98274.53
2022-12-15T11:57:48.593Z,98285.75
2022-12-15T12:00:43.885Z,98280.16
2022-12-15T12:03:51.735Z,98284.06
2022-12-15T12:06:52.938Z,98283.84
2022-12-15T12:09:58.840Z,98286.47
2022-12-15T12:12:56.833Z,98292.59
2022-12-15T12:16:22.489Z,98290.31
2022-12-15T12:19:13.743Z,98294.28
2022-12-15T12:22:10.711Z,98288.84
2022-12-15T12:25:10.998Z,98287.09
2022-12-15T12:28:03.785Z,98297.44
2022-12-15T12:30:50.832Z,98300.88
2022-12-15T12:33:42.989Z,98300.53
2022-12-15T12:36:29.983Z,98303.53
2022-12-15T12:39:21.683Z,98301.63
2022-12-15T12:42:20.419Z,98295.94
2022-12-15T12:45:12.681Z,98278.13
2022-12-15T12:48:08.883Z,98292.84
2022-12-15T12:51:27.565Z,98296.28
2022-12-15T12:54:35.446Z,98290.06
2022-12-15T12:57:35.864Z,98263.19
2022-12-15T13:00:27.277Z,98263.50
2022-12-15T13:03:18.706Z,98250.75
2022-12-15T13:06:41.378Z,98281.41
2022-12-15T13:09:44.081Z,98288.16
2022-12-15T13:12:58.863Z,98287.75
2022-12-15T13:15:50.963Z,98273.50
2022-12-15T13:19:02.309Z,98265.28
2022-12-15T13:21:55.360Z,98290.81
2022-12-15T13:24:50.390Z,98293.69
2022-12-15T13:27:40.822Z,98299.41
2022-12-15T13:30:27.981Z,98301.75
2022-12-15T13:33:19.040Z,98292.88
2022-12-15T13:36:06.254Z,98282.41
2022-12-15T13:38:56.808Z,98303.03
2022-12-15T13:42:15.102Z,98291.66
2022-12-15T13:45:06.354Z,98287.16
2022-12-15T13:47:56.386Z,98268.84
2022-12-15T13:51:00.178Z,98286.28
2022-12-15T13:54:10.050Z,98290.03
2022-12-15T13:57:05.504Z,98289.72
2022-12-15T14:00:00.192Z,98267.41
2022-12-15T14:02:47.533Z,98296.22
2022-12-15T14:05:34.893Z,98274.44
2022-12-15T14:08:23.979Z,98280.69
2022-12-15T14:11:51.304Z,98279.53
2022-12-15T14:14:36.287Z,98299.41
2022-12-15T14:17:23.512Z,98294.78
2022-12-15T14:20:19.720Z,98301.63
2022-12-15T14:23:58.016Z,98320.34
2022-12-15T14:26:50.639Z,98293.41
2022-12-15T14:29:37.748Z,98243.38
2022-12-15T14:32:25.057Z,98266.88
2022-12-15T14:35:24.940Z,98263.38
2022-12-15T14:38:16.524Z,98240.69
2022-12-15T14:41:05.123Z,98234.19
2022-12-15T14:44:37.062Z,98265.16
2022-12-15T14:47:16.630Z,98274.03
2022-12-15T14:50:10.258Z,98252.41
2022-12-15T14:53:06.874Z,98241.34
2022-12-15T14:55:54.433Z,98244.16
2022-12-15T14:58:47.155Z,98234.75
2022-12-15T15:01:57.948Z,98236.00
2022-12-15T15:03:04.488Z,98310.94
2022-12-15T15:05:04.319Z,98212.63
2022-12-15T15:07:56.790Z,98215.28
2022-12-15T15:10:44.067Z,98207.16
2022-12-15T15:13:40.880Z,98231.22
2022-12-15T15:16:28.283Z,98236.81
2022-12-15T15:19:21.505Z,98257.00
2022-12-15T15:22:26.371Z,98257.66
2022-12-15T15:25:41.566Z,98300.53
2022-12-15T15:28:36.460Z,98316.91
2022-12-15T15:31:41.481Z,98295.50
2022-12-15T15:34:31.588Z,98292.34
2022-12-15T15:37:23.733Z,98293.38
2022-12-15T15:40:13.430Z,98280.63
2022-12-15T15:43:00.547Z,98278.13
2022-12-15T15:45:49.573Z,98255.22
2022-12-15T15:48:42.325Z,98251.72
2022-12-15T15:51:31.442Z,98265.41
2022-12-15T15:54:23.071Z,98242.97
2022-12-15T15:57:18.275Z,98272.44
2022-12-15T16:00:20.262Z,98268.75
2022-12-15T16:03:08.757Z,98252.47
2022-12-15T16:05:56.520Z,98223.88
2022-12-15T16:08:44.828Z,98241.91
2022-12-15T16:11:32.496Z,98244.53
2022-12-15T16:14:19.645Z,98238.00
2022-12-15T16:17:09.814Z,98227.00
2022-12-15T16:19:56.969Z,98235.16
2022-12-15T16:22:47.334Z,98216.56
2022-12-15T16:25:48.560Z,98220.69
2022-12-15T16:28:38.208Z,98198.81
2022-12-15T16:31:42.056Z,98181.63
2022-12-15T16:34:29.357Z,98205.38
2022-12-15T16:37:27.790Z,98215.41
2022-12-15T16:40:27.797Z,98226.28
2022-12-15T16:43:21.270Z,98217.75
2022-12-15T16:46:12.545Z,98219.31
2022-12-15T16:48:59.880Z,98204.69
2022-12-15T16:51:51.490Z,98217.31
2022-12-15T16:54:39.329Z,98196.03
2022-12-15T16:57:26.754Z,98199.25
2022-12-15T17:00:22.664Z,98199.88
2022-12-15T17:03:15.575Z,98186.78
2022-12-15T17:06:06.764Z,98197.56
2022-12-15T17:08:57.799Z,98185.50
2022-12-15T17:11:45.438Z,98192.66
2022-12-15T17:14:33.103Z,98172.84
2022-12-15T17:17:20.792Z,98176.69
2022-12-15T17:23:22.761Z,98165.19
2022-12-15T17:26:29.039Z,98158.16
2022-12-15T17:29:20.405Z,98167.09
2022-12-15T17:32:13.058Z,98185.00
2022-12-15T17:35:03.909Z,98183.59
2022-12-15T17:37:51.869Z,98175.50
2022-12-15T17:40:40.530Z,98167.25
2022-12-15T17:43:33.843Z,98188.16
2022-12-15T17:46:23.402Z,98163.53
2022-12-15T17:49:10.609Z,98169.34
2022-12-15T17:52:01.376Z,98146.34
2022-12-15T17:54:49.042Z,98140.69
2022-12-15T17:57:36.693Z,98175.63
2022-12-15T18:00:31.871Z,98174.00
2022-12-15T18:03:21.535Z,98173.09
2022-12-15T18:06:14.876Z,98163.53
2022-12-15T18:09:02.729Z,98169.56
2022-12-15T18:11:49.876Z,98143.09
2022-12-15T18:14:37.545Z,98149.09
2022-12-15T18:17:25.097Z,98148.03
2022-12-15T18:20:12.410Z,98158.22
2022-12-15T18:23:00.656Z,98159.16
2022-12-15T18:25:48.737Z,98163.75
2022-12-15T18:28:36.388Z,98132.41
2022-12-15T18:31:27.032Z,98131.81
2022-12-15T18:34:19.065Z,98143.94
2022-12-15T18:37:17.645Z,98122.75
2022-12-15T18:40:05.466Z,98123.41
2022-12-15T18:42:54.474Z,98106.56
2022-12-15T18:45:42.349Z,98131.34
2022-12-15T18:48:35.441Z,98136.63
2022-12-15T18:51:23.919Z,98118.81
2022-12-15T18:54:23.585Z,98114.28
2022-12-15T18:57:32.315Z,98111.16
2022-12-15T19:00:25.203Z,98096.16
2022-12-15T19:03:13.175Z,98087.28
2022-12-15T19:06:04.125Z,98077.78
2022-12-15T19:08:52.406Z,98079.53
2022-12-15T19:11:41.324Z,98064.84
2022-12-15T19:14:40.865Z,98048.50
2022-12-15T19:17:47.039Z,98053.34
2022-12-15T19:20:53.790Z,98045.63
2022-12-15T19:23:41.028Z,98061.25
2022-12-15T19:26:28.682Z,98037.13
2022-12-15T19:29:19.440Z,98004.84
2022-12-15T19:32:08.965Z,98005.56
2022-12-15T19:34:59.189Z,98014.28
2022-12-15T19:37:50.543Z,98019.34
2022-12-15T19:51:45.376Z,98010.16
2022-12-15T19:57:50.921Z,98029.72
2022-12-15T20:00:40.177Z,98036.22
2022-12-15T20:03:29.495Z,98028.88
2022-12-15T20:06:21.061Z,98039.47
2022-12-15T20:09:15.624Z,98040.22
2022-12-15T20:12:03.958Z,98029.75
2022-12-15T20:14:51.504Z,98012.13
2022-12-15T20:17:39.247Z,98012.44
2022-12-15T20:20:28.706Z,98024.75
2022-12-15T20:23:29.718Z,98024.69
2022-12-15T20:26:17.851Z,98021.66
2022-12-15T20:29:07.879Z,98017.50
2022-12-15T20:31:57.591Z,97996.34
2022-12-15T20:34:47.471Z,98007.69
2022-12-15T20:37:34.751Z,98000.53
2022-12-15T20:40:25.666Z,97992.72
2022-12-15T20:43:18.448Z,97993.47
2022-12-15T20:46:23.797Z,97972.00
2022-12-15T20:49:17.179Z,97970.31
2022-12-15T20:52:07.018Z,97996.84
2022-12-15T20:54:55.276Z,97961.38
2022-12-15T20:57:42.832Z,97966.91
2022-12-15T21:00:30.486Z,97952.41
2022-12-15T21:03:28.417Z,97960.44
2022-12-15T21:06:15.982Z,97947.00
2022-12-15T21:09:03.560Z,97969.81
2022-12-15T21:11:52.220Z,97948.81
2022-12-15T21:14:42.750Z,97937.78
2022-12-15T21:17:29.900Z,97939.59
2022-12-15T21:20:17.142Z,97947.13
2022-12-15T21:23:04.228Z,97922.28
2022-12-15T21:25:52.073Z,97939.09
2022-12-15T21:28:39.138Z,97955.78
2022-12-15T21:31:26.715Z,97933.53
2022-12-15T21:34:13.961Z,97950.72
2022-12-15T21:37:03.043Z,97948.31
2022-12-15T21:39:50.235Z,97950.00
2022-12-15T21:42:38.345Z,97887.31
2022-12-15T21:45:26.738Z,97914.09
2022-12-15T21:48:32.669Z,97937.28
2022-12-15T21:51:19.892Z,97931.16
2022-12-15T21:54:20.246Z,97927.06
2022-12-15T21:57:11.778Z,97936.56
2022-12-15T21:59:58.950Z,97935.94
2022-12-15T22:02:47.595Z,97935.81
2022-12-15T22:05:34.670Z,97939.31
2022-12-15T22:08:22.491Z,97963.41
2022-12-15T22:11:23.190Z,97972.78
2022-12-15T22:14:19.752Z,97955.16
2022-12-15T22:17:27.032Z,97934.03
2022-12-15T22:20:15.483Z,97926.59
2022-12-15T22:23:02.546Z,97925.38
2022-12-15T22:25:54.711Z,97923.22
2022-12-15T22:28:41.881Z,97930.44
2022-12-15T22:31:29.372Z,97933.91
2022-12-15T22:34:21.903Z,97929.69
2022-12-15T22:37:09.140Z,97942.28
2022-12-15T22:39:56.240Z,97936.78
2022-12-15T22:42:51.319Z,97932.44
2022-12-15T22:45:42.739Z,97930.44
2022-12-15T22:48:34.503Z,97922.97
2022-12-15T22:51:22.168Z,97915.31
2022-12-15T22:54:19.334Z,97905.78
2022-12-15T22:57:17.435Z,97916.63
2022-12-15T23:00:09.771Z,97912.50
2022-12-15T23:05:50.971Z,97891.66
2022-12-15T23:08:38.786Z,97900.66
2022-12-15T23:11:38.179Z,97903.03
2022-12-15T23:14:43.948Z,97899.19
2022-12-15T23:17:30.966Z,97894.66
2022-12-15T23:20:18.083Z,97883.25
2022-12-15T23:23:05.459Z,97864.03
2022-12-15T23:25:52.566Z,97862.09
2022-12-15T23:28:41.250Z,97851.81
2022-12-15T23:31:29.043Z,97834.28
2022-12-15T23:34:16.168Z,97838.59
2022-12-15T23:37:03.220Z,97836.47
2022-12-15T23:39:50.223Z,97812.81
2022-12-15T23:42:38.854Z,97790.72
2022-12-15T23:45:25.974Z,97784.13
2022-12-15T23:48:14.312Z,97784.63
2022-12-15T23:51:16.231Z,97772.63
2022-12-15T23:54:03.347Z,97795.66
2022-12-15T23:56:50.330Z,97783.31
2022-12-15T23:59:38.763Z,97775.50
